Time;durP1;ratioP1;P1;durP2;ratioP2;P2;SDS_P1;SDS_P2;PMS_P1;PMS_P2;Temp;Humidity;BMP_temperature;BMP_pressure;BME280_temperature;BME280_humidity;BME280_pressure;Samples;Min_cycle;Max_cycle;Signal;HPM_P1;HPM_P2
2022/07/08 00:02:19;;;;;;;13.32;2.38;;;;;;;17.66;73.64;102517.31;5045453;28;20060;-69
2022/07/08 00:04:46;;;;;;;8.85;2.05;;;;;;;17.68;73.91;102514.13;5040336;28;20060;-71
2022/07/08 00:07:12;;;;;;;8.80;1.52;;;;;;;17.72;73.66;102517.72;5050948;28;20056;-70
2022/07/08 00:09:39;;;;;;;8.32;1.85;;;;;;;17.70;73.89;102515.34;5053090;28;20890;-69
2022/07/08 00:12:06;;;;;;;10.95;1.95;;;;;;;17.69;73.89;102529.72;5049421;28;20055;-69
2022/07/08 00:14:32;;;;;;;13.57;1.83;;;;;;;17.68;74.37;102523.31;5043331;28;20132;-71
2022/07/08 00:16:59;;;;;;;9.30;2.35;;;;;;;17.65;75.24;102517.75;5048979;28;20055;-71
2022/07/08 00:19:25;;;;;;;10.60;2.10;;;;;;;17.59;75.52;102513.75;5051077;28;20048;-70
2022/07/08 00:21:52;;;;;;;10.23;3.17;;;;;;;17.61;75.37;102519.72;5050953;28;20052;-71
2022/07/08 00:24:19;;;;;;;15.23;2.22;;;;;;;17.60;76.01;102529.34;5053375;28;20477;-70
2022/07/08 00:26:45;;;;;;;8.85;2.03;;;;;;;17.53;76.37;102526.53;5043932;28;20072;-72
2022/07/08 00:29:12;;;;;;;7.78;2.00;;;;;;;17.45;77.47;102525.75;5050643;28;20052;-71
2022/07/08 00:31:39;;;;;;;16.25;2.33;;;;;;;17.39;77.51;102529.31;5040659;28;20818;-71
2022/07/08 00:34:06;;;;;;;9.13;1.70;;;;;;;17.40;77.71;102530.91;5050547;28;20106;-70
2022/07/08 00:36:34;;;;;;;11.27;2.33;;;;;;;17.42;77.58;102534.94;5046910;28;20053;-71
2022/07/08 00:39:02;;;;;;;13.05;1.92;;;;;;;17.46;78.51;102535.75;5044114;28;20059;-70
2022/07/08 00:41:29;;;;;;;14.20;3.28;;;;;;;17.50;77.86;102532.94;5046542;28;20060;-71
2022/07/08 00:43:56;;;;;;;15.52;2.22;;;;;;;17.50;77.56;102530.94;5051354;28;20058;-69
2022/07/08 00:46:23;;;;;;;17.00;2.40;;;;;;;17.49;77.96;102532.13;5052932;28;20106;-71
2022/07/08 00:48:49;;;;;;;8.75;1.92;;;;;;;17.49;79.19;102534.16;5056175;28;20044;-71
2022/07/08 00:51:18;;;;;;;12.95;2.10;;;;;;;17.44;78.54;102535.34;5049940;28;20052;-71
2022/07/08 00:53:50;;;;;;;13.15;2.33;;;;;;;17.45;79.24;102531.34;5049712;28;20059;-70
2022/07/08 00:56:18;;;;;;;11.35;2.70;;;;;;;17.47;79.18;102528.16;5048691;28;20048;-70
2022/07/08 00:58:46;;;;;;;14.45;2.08;;;;;;;17.45;79.08;102524.97;5053049;28;20040;-69
2022/07/08 01:01:13;;;;;;;9.98;2.25;;;;;;;17.47;79.18;102530.94;5045760;28;20398;-70
2022/07/08 01:03:40;;;;;;;13.20;2.50;;;;;;;17.44;79.20;102523.34;5050581;28;20060;-70
2022/07/08 01:06:06;;;;;;;7.53;1.58;;;;;;;17.40;79.63;102534.53;5054075;28;20044;-70
2022/07/08 01:08:33;;;;;;;17.08;2.85;;;;;;;17.36;80.59;102527.31;5050050;28;20513;-72
2022/07/08 01:11:00;;;;;;;14.07;2.50;;;;;;;17.32;81.33;102541.31;5042472;28;20052;-71
2022/07/08 01:13:27;;;;;;;10.35;2.10;;;;;;;17.22;82.94;102541.31;5048655;28;20056;-70
2022/07/08 01:15:53;;;;;;;10.73;3.00;;;;;;;17.16;83.34;102534.53;5049692;28;20049;-70
2022/07/08 01:18:31;;;;;;;13.15;2.72;;;;;;;16.98;85.12;102539.31;5050310;28;20048;-72
2022/07/08 01:20:59;;;;;;;12.05;2.08;;;;;;;16.94;85.47;102538.50;5051859;28;20055;-70
2022/07/08 01:23:26;;;;;;;11.27;2.22;;;;;;;16.95;85.65;102538.09;5049002;28;20064;-69
2022/07/08 01:25:55;;;;;;;25.48;2.83;;;;;;;16.83;87.58;102548.84;5044911;28;20052;-70
2022/07/08 01:28:22;;;;;;;12.90;1.92;;;;;;;16.83;88.19;102554.44;5041811;28;20041;-69
2022/07/08 01:30:48;;;;;;;15.43;2.53;;;;;;;16.83;87.80;102555.25;5037852;28;20116;-70
2022/07/08 01:33:15;;;;;;;10.57;2.40;;;;;;;16.86;87.26;102554.47;5043716;28;20057;-70
2022/07/08 01:35:42;;;;;;;12.88;2.30;;;;;;;16.89;87.19;102552.84;5050232;28;20191;-67
2022/07/08 01:38:08;;;;;;;12.80;2.00;;;;;;;16.95;87.59;102551.28;5052223;28;20040;-70
2022/07/08 01:40:35;;;;;;;10.57;2.63;;;;;;;16.95;86.89;102543.69;5051342;28;20048;-69
2022/07/08 01:43:02;;;;;;;11.55;2.45;;;;;;;17.00;87.18;102545.28;5040626;28;20634;-70
2022/07/08 01:45:28;;;;;;;11.73;2.95;;;;;;;17.00;86.92;102546.09;5042555;28;20053;-70
2022/07/08 01:47:55;;;;;;;12.75;2.75;;;;;;;17.03;86.93;102541.69;5040669;28;20076;-70
2022/07/08 01:50:21;;;;;;;13.50;2.33;;;;;;;16.98;86.99;102539.31;5050408;28;20052;-69
2022/07/08 01:52:48;;;;;;;16.42;3.10;;;;;;;16.99;87.85;102538.91;5064968;28;20593;-70
2022/07/08 01:55:14;;;;;;;13.40;2.58;;;;;;;16.99;88.97;102549.28;5056847;28;20143;-71
2022/07/08 01:57:41;;;;;;;13.80;2.53;;;;;;;16.90;88.75;102541.28;5063293;28;20163;-69
2022/07/08 02:00:08;;;;;;;11.23;2.40;;;;;;;16.82;89.90;102536.06;5058259;28;20476;-67
2022/07/08 02:02:41;;;;;;;17.60;2.58;;;;;;;16.83;89.61;102534.88;5056073;28;20125;-70
2022/07/08 02:05:09;;;;;;;16.70;2.83;;;;;;;16.86;89.40;102531.28;5055531;28;20514;-69
2022/07/08 02:07:37;;;;;;;11.07;2.88;;;;;;;16.87;89.44;102542.06;5050301;28;20076;-69
2022/07/08 02:10:04;;;;;;;12.73;2.92;;;;;;;16.89;89.33;102536.09;5061544;28;20171;-70
2022/07/08 02:12:31;;;;;;;12.02;2.70;;;;;;;16.84;89.71;102537.25;5063894;28;20053;-68
2022/07/08 02:15:01;;;;;;;21.48;3.05;;;;;;;16.81;90.39;102534.47;5064643;28;20823;-71
2022/07/08 02:17:37;;;;;;;12.82;2.40;;;;;;;16.73;91.88;102541.22;5061406;28;20053;-70
2022/07/08 02:20:06;;;;;;;13.32;2.70;;;;;;;16.65;92.27;102542.41;5057402;28;20133;-70
2022/07/08 02:22:33;;;;;;;12.93;2.55;;;;;;;16.63;93.65;102539.22;5055232;28;20053;-70
2022/07/08 02:25:00;;;;;;;16.33;3.22;;;;;;;16.62;93.10;102540.41;5058630;28;20530;-70
2022/07/08 02:27:26;;;;;;;13.68;2.50;;;;;;;16.57;93.37;102540.81;5055322;28;20052;-70
2022/07/08 02:29:53;;;;;;;17.00;3.22;;;;;;;16.59;92.95;102536.41;5052852;28;20053;-69
2022/07/08 02:32:19;;;;;;;8.02;2.40;;;;;;;16.53;94.18;102542.75;5059698;28;20083;-70
2022/07/08 02:34:46;;;;;;;17.27;2.80;;;;;;;16.48;95.15;102538.38;5052570;28;20054;-71
2022/07/08 02:37:13;;;;;;;12.27;2.60;;;;;;;16.44;94.74;102531.97;5061476;28;20096;-69
2022/07/08 02:39:40;;;;;;;12.23;2.30;;;;;;;16.48;93.95;102543.16;5063016;28;20060;-68
2022/07/08 02:42:09;;;;;;;8.65;2.30;;;;;;;16.47;94.51;102542.34;5063319;28;20044;-69
2022/07/08 02:44:38;;;;;;;9.60;2.50;;;;;;;16.41;95.76;102549.50;5063258;28;20528;-69
2022/07/08 02:47:05;;;;;;;13.13;2.35;;;;;;;16.40;95.72;102538.72;5062686;28;20048;-69
2022/07/08 02:49:32;;;;;;;7.93;2.72;;;;;;;16.47;94.48;102541.56;5056272;28;20037;-67
2022/07/08 02:51:58;;;;;;;7.30;2.05;;;;;;;16.41;96.57;102549.50;5061630;28;20052;-70
2022/07/08 02:54:25;;;;;;;12.77;3.38;;;;;;;16.42;96.02;102542.75;5068754;28;20083;-69
2022/07/08 02:56:52;;;;;;;10.23;2.50;;;;;;;16.45;95.77;102549.53;5060113;28;20524;-69
2022/07/08 02:59:18;;;;;;;14.00;2.85;;;;;;;16.45;95.65;102550.34;5061526;28;20493;-69
2022/07/08 03:01:45;;;;;;;16.10;2.88;;;;;;;16.47;95.94;102555.53;5066786;28;20048;-69
2022/07/08 03:04:11;;;;;;;14.70;2.35;;;;;;;16.39;96.65;102548.28;5067525;28;20045;-70
2022/07/08 03:06:38;;;;;;;19.10;3.55;;;;;;;16.41;96.28;102559.88;5061123;28;20060;-70
2022/07/08 03:09:04;;;;;;;16.08;2.80;;;;;;;16.37;97.27;102550.69;5065414;28;20080;-69
2022/07/08 03:11:31;;;;;;;14.88;2.55;;;;;;;16.34;97.55;102554.25;5062109;28;20577;-68
2022/07/08 03:13:58;;;;;;;12.32;2.38;;;;;;;16.29;98.57;102552.63;5059430;28;20151;-69
2022/07/08 03:16:31;;;;;;;12.23;2.60;;;;;;;16.35;97.57;102553.06;5064241;28;20048;-69
2022/07/08 03:18:57;;;;;;;15.65;2.80;;;;;;;16.38;97.56;102549.47;5066227;28;20044;-70
2022/07/08 03:21:24;;;;;;;13.32;2.55;;;;;;;16.27;98.51;102554.22;5056571;28;20081;-70
2022/07/08 03:23:50;;;;;;;11.43;2.78;;;;;;;16.28;98.18;102553.03;5057737;28;20049;-69
2022/07/08 03:26:17;;;;;;;13.80;2.67;;;;;;;16.32;99.18;102562.22;5055966;28;20051;-70
2022/07/08 03:28:44;;;;;;;12.35;2.38;;;;;;;16.27;98.51;102559.81;5065804;28;20139;-69
2022/07/08 03:31:10;;;;;;;18.50;2.63;;;;;;;16.31;98.97;102560.63;5061041;28;20152;-69
2022/07/08 03:33:38;;;;;;;12.30;2.60;;;;;;;16.32;98.94;102562.22;5067056;28;20485;-69
2022/07/08 03:36:06;;;;;;;12.60;3.20;;;;;;;16.38;97.98;102569.03;5064424;28;20076;-69
2022/07/08 03:38:34;;;;;;;15.27;2.50;;;;;;;16.39;98.58;102559.44;5060289;28;20652;-71
2022/07/08 03:43:47;;;;;;;12.40;2.40;;;;;;;16.38;99.47;102564.25;5067425;28;20162;-69
2022/07/08 03:46:14;;;;;;;12.52;2.47;;;;;;;16.42;98.09;102572.63;5068105;28;20141;-72
2022/07/08 03:48:41;;;;;;;15.00;2.83;;;;;;;16.45;97.52;102560.72;5056787;28;20413;-69
2022/07/08 03:51:07;;;;;;;15.70;2.72;;;;;;;16.46;97.20;102563.13;5063254;28;20581;-68
2022/07/08 03:53:34;;;;;;;8.18;2.47;;;;;;;16.46;97.15;102562.31;5066081;28;20127;-69
2022/07/08 03:56:02;;;;;;;8.32;2.15;;;;;;;16.44;97.53;102561.91;5066526;28;20105;-70
2022/07/08 03:58:28;;;;;;;14.57;2.60;;;;;;;16.47;97.76;102561.91;5063293;28;20053;-69
2022/07/08 04:00:56;;;;;;;7.78;2.40;;;;;;;16.41;98.91;102563.47;5066380;28;20060;-70
2022/07/08 04:03:22;;;;;;;14.45;2.78;;;;;;;16.40;98.42;102559.06;5064889;28;20049;-69
2022/07/08 04:05:49;;;;;;;11.43;2.72;;;;;;;16.36;99.11;102571.41;5068152;28;20163;-69
2022/07/08 04:08:15;;;;;;;11.98;2.47;;;;;;;16.32;99.43;102573.38;5065325;28;20157;-69
2022/07/08 04:10:42;;;;;;;10.85;2.20;;;;;;;16.35;99.40;102578.19;5065302;28;20052;-69
2022/07/08 04:13:09;;;;;;;16.77;4.60;;;;;;;16.38;98.08;102571.81;5058397;28;20057;-70
2022/07/08 04:15:35;;;;;;;14.93;2.42;;;;;;;16.37;98.95;102578.63;5051717;28;20504;-69
2022/07/08 04:18:02;;;;;;;12.45;2.53;;;;;;;16.45;98.59;102580.28;5060120;28;20072;-68
2022/07/08 04:20:29;;;;;;;8.80;2.58;;;;;;;16.46;97.95;102579.06;5063006;28;20423;-70
2022/07/08 04:22:55;;;;;;;11.43;2.35;;;;;;;16.51;98.77;102584.28;5063239;28;20119;-69
2022/07/08 04:25:22;;;;;;;13.90;3.08;;;;;;;16.47;98.66;102586.28;5063909;28;20059;-69
2022/07/08 04:27:49;;;;;;;5.88;2.20;;;;;;;16.50;98.87;102593.88;5066460;28;20125;-69
2022/07/08 04:30:15;;;;;;;13.43;3.05;;;;;;;16.58;98.08;102601.91;5065725;28;20075;-71
2022/07/08 04:32:42;;;;;;;12.93;2.88;;;;;;;16.56;98.71;102595.88;5066185;28;20044;-69
2022/07/08 04:35:08;;;;;;;14.23;2.88;;;;;;;16.63;98.06;102606.28;5061046;28;20053;-69
2022/07/08 04:37:35;;;;;;;13.93;2.95;;;;;;;16.70;98.44;102607.13;5062853;28;20662;-69
2022/07/08 04:40:02;;;;;;;13.77;2.50;;;;;;;16.73;98.41;102602.72;5057880;28;20585;-69
2022/07/08 04:42:28;;;;;;;13.43;2.58;;;;;;;16.78;97.54;102602.38;5060670;28;20436;-69
2022/07/08 04:44:55;;;;;;;11.10;2.78;;;;;;;16.81;97.73;102610.75;5064965;28;20058;-69
2022/07/08 04:47:21;;;;;;;18.42;2.55;;;;;;;16.85;96.59;102624.75;5078310;28;20068;-69
2022/07/08 04:49:48;;;;;;;13.73;3.45;;;;;;;16.87;97.50;102619.56;5065366;28;20049;-70
2022/07/08 04:52:14;;;;;;;13.10;2.90;;;;;;;16.89;96.87;102623.56;5061352;28;20140;-70
2022/07/08 04:54:41;;;;;;;13.90;3.15;;;;;;;16.91;96.97;102631.56;5066327;28;20114;-70
2022/07/08 04:57:07;;;;;;;13.68;2.55;;;;;;;16.99;96.29;102636.78;5065178;28;20053;-69
2022/07/08 04:59:34;;;;;;;13.95;2.70;;;;;;;17.03;96.25;102636.78;5058981;28;20492;-70
2022/07/08 05:02:01;;;;;;;12.73;2.63;;;;;;;17.05;96.11;102642.78;5063822;28;20116;-69
2022/07/08 05:04:28;;;;;;;8.52;2.35;;;;;;;17.09;96.00;102652.00;5055234;28;20575;-69
2022/07/08 05:06:54;;;;;;;13.85;3.17;;;;;;;17.06;96.51;102641.59;5054361;28;20063;-70
2022/07/08 05:09:21;;;;;;;12.50;2.63;;;;;;;17.11;95.94;102636.41;5049698;28;20043;-69
2022/07/08 05:11:48;;;;;;;11.35;2.55;;;;;;;17.07;95.41;102640.38;5056552;28;20065;-69
2022/07/08 05:14:14;;;;;;;14.32;2.67;;;;;;;17.13;96.06;102647.19;5061407;28;20053;-69
2022/07/08 05:16:42;;;;;;;14.50;3.00;;;;;;;17.17;96.40;102648.00;5053662;28;20055;-69
2022/07/08 05:19:09;;;;;;;9.93;2.65;;;;;;;17.21;95.51;102655.22;5055044;28;20044;-70
2022/07/08 05:21:37;;;;;;;9.13;2.25;;;;;;;17.20;96.49;102656.41;5062860;28;20052;-68
2022/07/08 05:24:07;;;;;;;13.65;2.40;;;;;;;17.19;96.06;102640.03;5055086;28;20497;-69
2022/07/08 05:26:34;;;;;;;14.00;3.67;;;;;;;17.21;96.69;102649.63;5061192;28;20135;-69
2022/07/08 05:29:02;;;;;;;15.25;2.80;;;;;;;17.11;96.41;102644.78;5050634;28;20064;-69
2022/07/08 05:31:29;;;;;;;11.60;3.47;;;;;;;17.28;96.05;102640.44;5058948;28;20892;-69
2022/07/08 05:33:56;;;;;;;9.40;3.10;;;;;;;17.28;95.56;102638.44;5063889;28;20501;-68
2022/07/08 05:36:23;;;;;;;13.38;2.78;;;;;;;17.35;93.72;102643.25;5062755;28;20041;-70
2022/07/08 05:38:50;;;;;;;17.15;2.90;;;;;;;17.42;94.09;102646.09;5061194;28;20155;-70
2022/07/08 05:41:16;;;;;;;12.07;2.20;;;;;;;17.40;93.44;102634.47;5061399;28;20051;-69
2022/07/08 05:43:43;;;;;;;19.42;3.65;;;;;;;17.49;92.13;102632.13;5060060;28;20052;-71
2022/07/08 05:46:10;;;;;;;19.35;3.63;;;;;;;17.57;91.57;102640.13;5057036;28;20261;-70
2022/07/08 05:48:37;;;;;;;16.50;2.20;;;;;;;17.65;90.95;102638.13;5056263;28;20659;-70
2022/07/08 05:51:03;;;;;;;11.55;2.30;;;;;;;17.71;89.19;102631.72;5063175;28;20507;-72
2022/07/08 05:53:30;;;;;;;14.57;2.53;;;;;;;17.78;88.19;102639.31;5063493;28;20520;-70
2022/07/08 05:55:57;;;;;;;16.95;2.55;;;;;;;17.75;88.39;102654.91;5063369;28;20040;-69
2022/07/08 05:58:23;;;;;;;12.23;2.30;;;;;;;17.69;87.93;102650.13;5061246;28;20139;-71
2022/07/08 06:00:50;;;;;;;13.93;2.65;;;;;;;17.79;87.69;102654.91;5055689;28;20130;-70
2022/07/08 06:03:16;;;;;;;12.73;2.92;;;;;;;17.87;87.10;102654.53;5055069;28;20041;-71
2022/07/08 06:05:43;;;;;;;10.40;2.40;;;;;;;17.95;86.29;102652.50;5060935;28;20057;-71
2022/07/08 06:08:10;;;;;;;12.45;2.42;;;;;;;17.93;84.45;102652.13;5056253;28;20139;-71
2022/07/08 06:10:36;;;;;;;17.25;2.30;;;;;;;17.91;84.29;102654.50;5063850;28;20069;-70
2022/07/08 06:13:03;;;;;;;13.70;2.47;;;;;;;17.95;83.95;102646.88;5062898;28;20048;-70
2022/07/08 06:15:30;;;;;;;9.43;2.10;;;;;;;18.08;83.14;102650.88;5064354;28;20062;-70
2022/07/08 06:17:56;;;;;;;15.77;3.15;;;;;;;18.17;82.60;102651.28;5063360;28;20125;-71
2022/07/08 06:20:23;;;;;;;16.40;2.40;;;;;;;18.27;81.69;102661.66;5063235;28;20047;-71
2022/07/08 06:22:50;;;;;;;11.70;2.35;;;;;;;18.31;81.65;102661.66;5065454;28;20199;-70
2022/07/08 06:25:17;;;;;;;10.10;2.33;;;;;;;18.34;81.06;102666.44;5060307;28;20510;-70
2022/07/08 06:27:44;;;;;;;13.93;2.03;;;;;;;18.38;78.90;102665.25;5065050;28;20571;-71
2022/07/08 06:30:13;;;;;;;10.35;2.20;;;;;;;18.41;76.13;102670.06;5059185;28;20067;-71
2022/07/08 06:32:40;;;;;;;9.60;1.70;;;;;;;18.48;76.40;102670.03;5054236;28;20468;-72
2022/07/08 06:35:07;;;;;;;12.15;2.13;;;;;;;18.57;77.12;102673.25;5058696;28;20062;-73
2022/07/08 06:37:34;;;;;;;8.90;2.38;;;;;;;18.66;77.23;102661.59;5059139;28;20067;-73
2022/07/08 06:40:02;;;;;;;8.80;1.80;;;;;;;18.73;75.98;102661.56;5055878;28;20041;-71
2022/07/08 06:42:28;;;;;;;10.38;2.13;;;;;;;18.76;75.88;102666.38;5062773;28;20140;-72
2022/07/08 06:44:55;;;;;;;8.82;2.03;;;;;;;18.66;76.05;102662.38;5063394;28;20436;-71
2022/07/08 06:47:22;;;;;;;11.90;2.47;;;;;;;18.66;77.12;102667.97;5063677;28;20398;-71
2022/07/08 06:49:50;;;;;;;13.20;2.17;;;;;;;18.73;76.20;102672.78;5054680;28;20045;-70
2022/07/08 06:52:17;;;;;;;5.47;1.40;;;;;;;18.79;74.15;102669.13;5055613;28;20080;-70
2022/07/08 06:54:44;;;;;;;10.70;1.80;;;;;;;18.90;74.33;102675.50;5060763;28;20079;-71
2022/07/08 06:57:11;;;;;;;13.55;2.30;;;;;;;19.02;74.05;102677.03;5060149;28;20139;-70
2022/07/08 06:59:38;;;;;;;10.60;2.22;;;;;;;19.16;74.12;102685.38;5059074;28;20044;-69
2022/07/08 07:02:25;;;;;;;10.50;2.00;;;;;;;19.19;72.90;102679.78;5059946;28;20053;-69
2022/07/08 07:04:52;;;;;;;9.00;2.42;;;;;;;19.12;73.16;102682.63;5059250;28;20681;-70
2022/07/08 07:07:18;;;;;;;12.30;2.35;;;;;;;19.26;73.69;102678.94;5065408;28;20084;-69
2022/07/08 07:09:46;;;;;;;6.00;1.80;;;;;;;19.41;73.00;102684.06;5057696;28;20049;-69
2022/07/08 07:12:14;;;;;;;10.82;2.03;;;;;;;19.47;70.75;102685.22;5061567;28;20147;-70
2022/07/08 07:14:41;;;;;;;11.88;3.05;;;;;;;19.56;71.40;102685.56;5061539;28;20475;-69
2022/07/08 07:17:08;;;;;;;6.93;2.15;;;;;;;19.64;71.01;102680.72;5062124;28;20057;-71
2022/07/08 07:19:35;;;;;;;14.25;2.08;;;;;;;19.72;70.22;102673.81;5061571;28;20075;-68
2022/07/08 07:22:01;;;;;;;10.07;1.95;;;;;;;19.89;69.51;102679.31;5053113;28;20713;-68
2022/07/08 07:24:28;;;;;;;7.95;1.60;;;;;;;19.94;68.35;102673.22;5058890;28;20090;-69
2022/07/08 07:26:55;;;;;;;11.02;2.22;;;;;;;20.03;67.64;102684.00;5057065;28;20106;-70
2022/07/08 07:29:22;;;;;;;9.25;2.03;;;;;;;20.09;67.38;102682.34;5056613;28;20048;-69
2022/07/08 07:31:49;;;;;;;11.52;2.30;;;;;;;20.04;67.39;102689.19;5063913;28;20139;-69
2022/07/08 07:34:15;;;;;;;7.63;1.90;;;;;;;19.67;67.86;102683.47;5062363;28;20049;-72
2022/07/08 07:36:42;;;;;;;11.10;2.00;;;;;;;19.76;68.62;102691.44;5063617;28;20167;-69
2022/07/08 07:39:09;;;;;;;9.40;2.58;;;;;;;19.67;67.42;102686.28;5059830;28;20049;-71
2022/07/08 07:41:37;;;;;;;7.13;1.90;;;;;;;19.57;68.86;102687.16;5054443;28;20072;-69
2022/07/08 07:44:05;;;;;;;10.32;1.80;;;;;;;19.23;69.37;102686.16;5063171;28;20056;-70
2022/07/08 07:46:32;;;;;;;9.25;1.70;;;;;;;19.29;70.56;102689.34;5059946;28;20569;-70
2022/07/08 07:49:00;;;;;;;8.23;1.90;;;;;;;19.41;69.00;102684.06;5065819;28;20054;-71
2022/07/08 07:51:27;;;;;;;12.15;3.13;;;;;;;19.49;68.58;102673.59;5060814;28;20086;-70
2022/07/08 07:53:54;;;;;;;11.35;2.08;;;;;;;19.62;68.73;102681.13;5065898;28;20551;-69
2022/07/08 07:56:23;;;;;;;12.63;1.88;;;;;;;19.75;69.12;102670.19;5058817;28;20066;-69
2022/07/08 07:58:50;;;;;;;9.10;1.70;;;;;;;19.85;68.50;102669.31;5064791;28;20194;-72
2022/07/08 08:01:16;;;;;;;11.30;1.95;;;;;;;19.94;69.45;102684.47;5063099;28;20053;-70
2022/07/08 08:03:43;;;;;;;2.40;1.02;;;;;;;19.59;68.66;102690.38;5057067;28;20052;-71
2022/07/08 08:06:10;;;;;;;10.85;1.95;;;;;;;19.70;68.50;102696.69;5062962;28;20048;-70
2022/07/08 08:08:36;;;;;;;9.18;2.22;;;;;;;19.74;69.19;102699.47;5064922;28;20083;-70
2022/07/08 08:11:03;;;;;;;16.73;2.75;;;;;;;19.74;68.16;102699.47;5061312;28;20048;-71
2022/07/08 08:13:30;;;;;;;9.88;2.17;;;;;;;19.72;67.91;102699.91;5058259;28;20552;-70
2022/07/08 08:15:58;;;;;;;9.45;1.92;;;;;;;19.48;68.93;102692.44;5060194;28;20053;-70
2022/07/08 08:18:24;;;;;;;9.90;1.83;;;;;;;19.48;69.38;102692.44;5065249;28;20135;-71
2022/07/08 08:20:51;;;;;;;11.07;2.00;;;;;;;19.73;67.81;102704.31;5064315;28;20166;-72
2022/07/08 08:23:18;;;;;;;8.02;2.10;;;;;;;19.79;67.54;102701.84;5061926;28;20060;-71
2022/07/08 08:25:48;;;;;;;9.32;2.05;;;;;;;20.01;67.98;102711.69;5062528;28;20086;-72
2022/07/08 08:28:15;;;;;;;13.00;2.22;;;;;;;20.13;65.92;102708.41;5065273;28;20051;-70
2022/07/08 08:30:41;;;;;;;10.55;2.13;;;;;;;20.36;66.13;102703.75;5056278;28;20453;-70
2022/07/08 08:33:08;;;;;;;8.98;2.40;;;;;;;20.48;64.45;102708.06;5052432;28;20155;-71
2022/07/08 08:35:35;;;;;;;10.70;2.15;;;;;;;20.47;63.98;102706.47;5065732;28;20040;-69
2022/07/08 08:38:02;;;;;;;10.73;1.60;;;;;;;20.54;63.58;102711.22;5063030;28;20048;-70
2022/07/08 08:40:30;;;;;;;9.68;1.60;;;;;;;20.55;62.94;102707.22;5060026;28;20590;-71
2022/07/08 08:42:57;;;;;;;9.40;2.05;;;;;;;20.65;62.09;102714.72;5060238;28;20117;-72
2022/07/08 08:45:32;;;;;;;11.23;1.98;;;;;;;20.79;62.43;102714.56;5037812;28;20098;-72
2022/07/08 08:48:05;;;;;;;8.23;1.85;;;;;;;20.94;61.41;102704.75;5049468;28;20102;-70
2022/07/08 08:53:21;;;;;;;;;;;;;;;21.09;58.94;102706.19;5045636;28;20045;-69
2022/07/08 08:55:50;;;;;;;11.40;1.95;;;;;;;21.23;59.86;102706.00;5051553;28;20647;-70
2022/07/08 08:58:17;;;;;;;13.60;2.53;;;;;;;21.34;60.39;102707.44;5041654;28;20137;-69
2022/07/08 09:00:43;;;;;;;8.07;1.90;;;;;;;21.48;59.18;102700.78;5050394;28;20101;-68
2022/07/08 09:03:11;;;;;;;7.00;1.70;;;;;;;21.66;58.69;102701.31;5046011;28;20782;-73
2022/07/08 09:05:37;;;;;;;7.80;1.75;;;;;;;21.80;57.19;102701.91;5050798;28;20067;-72
2022/07/08 09:08:04;;;;;;;8.00;2.15;;;;;;;21.71;57.46;102700.84;5042283;28;20557;-72
2022/07/08 09:10:31;;;;;;;8.18;2.00;;;;;;;21.43;57.77;102698.47;5046391;28;20575;-73
2022/07/08 09:13:16;;;;;;;8.38;1.95;;;;;;;21.47;57.62;102696.38;5046194;28;20052;-72
2022/07/08 09:15:46;;;;;;;10.63;1.77;;;;;;;21.33;58.33;102693.78;5045857;28;20830;-71
2022/07/08 09:18:18;;;;;;;9.95;2.13;;;;;;;21.29;58.09;102695.84;5045501;28;20135;-71
2022/07/08 09:20:54;;;;;;;8.88;1.88;;;;;;;21.14;59.61;102692.44;5042654;28;20060;-73
2022/07/08 09:23:24;;;;;;;12.25;1.85;;;;;;;21.20;58.96;102687.13;5049895;28;20048;-71
2022/07/08 09:25:52;;;;;;;14.07;2.55;;;;;;;21.43;58.38;102681.56;5044099;28;20052;-74
2022/07/08 09:28:33;;;;;;;7.45;1.48;;;;;;;21.47;57.07;102690.75;5051833;28;20055;-71
2022/07/08 09:31:05;;;;;;;5.40;1.55;;;;;;;21.33;57.79;102691.75;5043594;28;20121;-73
2022/07/08 09:33:32;;;;;;;10.85;1.60;;;;;;;21.62;57.55;102689.31;5040628;28;20053;-74
2022/07/08 09:36:01;;;;;;;9.75;2.28;;;;;;;21.76;56.30;102694.72;5040781;28;20053;-74
2022/07/08 09:38:29;;;;;;;8.18;1.85;;;;;;;22.02;56.03;102688.28;5044571;28;20058;-72
2022/07/08 09:41:04;;;;;;;7.03;1.83;;;;;;;22.32;55.66;102691.75;5043070;28;20045;-71
2022/07/08 09:43:33;;;;;;;11.52;3.00;;;;;;;22.58;54.48;102679.56;5039786;28;20908;-72
2022/07/08 09:46:05;;;;;;;7.82;3.63;;;;;;;22.73;54.48;102683.72;5049391;28;20068;-75
2022/07/08 09:48:31;;;;;;;4.05;1.13;;;;;;;22.37;53.97;102685.59;5047704;28;20237;-73
2022/07/08 09:51:11;;;;;;;8.30;1.92;;;;;;;22.42;55.36;102684.31;5045912;28;20052;-74
2022/07/08 09:53:40;;;;;;;3.33;1.33;;;;;;;22.01;54.42;102678.22;5044210;28;20057;-72
2022/07/08 09:56:07;;;;;;;9.93;1.98;;;;;;;22.24;55.76;102675.41;5045348;28;20572;-72
2022/07/08 09:58:36;;;;;;;9.48;1.95;;;;;;;22.55;54.41;102671.19;5046216;28;20790;-70
2022/07/08 10:01:04;;;;;;;11.13;2.17;;;;;;;22.77;52.77;102664.69;5047950;28;20040;-74
2022/07/08 10:03:32;;;;;;;10.20;2.05;;;;;;;22.77;51.73;102670.34;5039426;28;20060;-72
2022/07/08 10:06:01;;;;;;;6.60;1.85;;;;;;;22.85;51.35;102670.97;5049908;28;20084;-73
2022/07/08 10:08:28;;;;;;;7.38;2.25;;;;;;;22.93;51.75;102678.06;5049382;28;20052;-73
2022/07/08 10:10:57;;;;;;;3.92;1.38;;;;;;;22.67;50.42;102676.19;5049967;28;20052;-72
2022/07/08 10:13:26;;;;;;;10.48;2.15;;;;;;;22.84;52.00;102674.25;5050095;28;20049;-71
2022/07/08 10:15:58;;;;;;;5.07;1.50;;;;;;;22.82;51.23;102671.84;5040857;28;20159;-70
2022/07/08 10:18:31;;;;;;;8.23;1.70;;;;;;;22.93;51.72;102669.59;5044598;28;20136;-74
2022/07/08 10:21:00;;;;;;;6.93;1.65;;;;;;;22.80;52.02;102671.47;5049433;28;20044;-73
2022/07/08 10:23:46;;;;;;;8.75;2.00;;;;;;;23.07;52.87;102676.94;5041916;28;20083;-68
2022/07/08 10:26:17;;;;;;;11.10;2.05;;;;;;;23.48;52.45;102680.09;5044293;28;20163;-71
2022/07/08 10:28:44;;;;;;;10.93;2.33;;;;;;;23.52;52.41;102675.16;5052971;28;20759;-69
2022/07/08 10:31:22;;;;;;;12.77;2.10;;;;;;;23.73;50.78;102678.25;5051521;28;20123;-69
2022/07/08 10:33:50;;;;;;;11.18;2.33;;;;;;;23.98;50.58;102677.63;5050625;28;20052;-69
2022/07/08 10:36:22;;;;;;;10.68;1.90;;;;;;;24.15;50.07;102676.38;5049599;28;20178;-73
2022/07/08 10:38:50;;;;;;;10.85;1.95;;;;;;;24.01;50.39;102683.22;5050134;28;20056;-72
2022/07/08 10:41:25;;;;;;;10.77;1.80;;;;;;;24.03;50.02;102686.38;5044288;28;20045;-73
2022/07/08 10:43:57;;;;;;;6.45;1.58;;;;;;;23.93;49.74;102686.63;5047126;28;20131;-73
2022/07/08 10:46:25;;;;;;;7.78;2.60;;;;;;;23.40;51.37;102693.56;5052675;28;20048;-73
2022/07/08 10:48:53;;;;;;;5.97;2.00;;;;;;;23.61;50.77;102695.09;5046972;28;20076;-71
2022/07/08 10:51:19;;;;;;;9.55;1.42;;;;;;;23.87;50.67;102683.56;5047554;28;20211;-71
2022/07/08 10:54:06;;;;;;;5.72;1.55;;;;;;;24.05;49.49;102692.41;5048037;28;20044;-73
2022/07/08 10:56:54;;;;;;;8.15;1.65;;;;;;;24.12;48.04;102688.59;5050921;28;20147;-71
2022/07/08 10:59:27;;;;;;;5.70;1.90;;;;;;;24.41;47.80;102689.41;5047082;28;20051;-71
2022/07/08 11:02:16;;;;;;;4.80;1.67;;;;;;;24.60;47.31;102689.28;5066563;28;20051;-72
2022/07/08 11:04:46;;;;;;;8.57;1.98;;;;;;;24.71;47.33;102689.00;5056878;28;20045;-71
2022/07/08 11:07:23;;;;;;;11.23;2.20;;;;;;;24.49;46.72;102683.13;5057217;28;20241;-73
2022/07/08 11:09:51;;;;;;;17.38;2.22;;;;;;;24.55;47.71;102672.84;5054919;28;20056;-70
2022/07/08 11:12:20;;;;;;;5.35;1.70;;;;;;;24.77;48.12;102682.34;5054192;28;20172;-71
2022/07/08 11:14:48;;;;;;;8.48;1.70;;;;;;;24.50;48.75;102681.88;5052271;28;20051;-72
2022/07/08 11:17:19;;;;;;;12.52;2.03;;;;;;;23.93;50.02;102684.63;5047821;28;20102;-72
2022/07/08 11:19:48;;;;;;;5.40;1.85;;;;;;;24.09;50.04;102673.28;5043879;28;20291;-71
2022/07/08 11:22:15;;;;;;;9.93;1.70;;;;;;;24.12;50.84;102675.25;5048626;28;20155;-73
2022/07/08 11:24:54;;;;;;;9.27;2.33;;;;;;;24.37;50.44;102680.25;5049142;28;20048;-71
2022/07/08 11:27:25;;;;;;;9.30;1.90;;;;;;;24.61;49.51;102673.09;5048293;28;20165;-71
2022/07/08 11:29:53;;;;;;;3.10;1.15;;;;;;;24.23;49.87;102675.75;5050966;28;20060;-73